Palermo, California
Current Conditions -  °F | °C
As of 11:30 AM on Monday 22 Dec 2014 (Local Time) from KOVE Reporting Station
Broken Clouds Broken Clouds  
Wind Chill: 56°   Ceiling: 400
Heat Index: 56°   Visibility: 10mi
Dew Point: 53°   Wind: 7mph
Humidity: 90%   Direction: 300°WNW
Pressure: 30.27"   Gusts: NA
Location:  39.44°N, 121.54°W
Report Text: KOVE 221930Z AUTO 30006KT 10SM BKN004 13/12 A3027 RMK AO2 CIG 002V008 T01330117
Loading
Personal Weather Stations






























Interactive Weather Map New forecast layout! Learn more

10-Day Weather Forecast

Advertisements
Track Severe Weather on mobile